EDDC Airport Information

Runway Information
Runway 04 Length 9350 ft width 197 ft
Elevation 755 ft Threshold ft Heading 41
Runway 22 Length 9350 ft Width 197 ft
Elevation 703 ft Threshold 990 ft Heading 221
Airport Frequencies
Type AFIS Name MUNCHEN IN Frequency 125.8 MHZ
Type APP Name MUNCHEN RA Frequency 125.625 MHZ
Type ATIS Name ATIS Frequency 118.875 MHZ
Type GND Name GND Frequency 121.9 MHZ
Type RMP Name APRON Frequency 121.75 MHZ
Type TWR Name TWR Frequency 119.7 MHZ
Airport Navaids
Type DME Name Dresden Frequency 115400 KHZ
Type VOR-DME Name Dresden Frequency 114350 KHZ
Airport Weather Information & NOTAM
ADDS - METARS form results

(1227 UTC 07 February 2023)
Data provider http://aviationweather.gov/metar/data/
 
METAR text: EDDC 071220Z AUTO VRB02KT CAVOK M00/M06 Q1040 NOSIG
Conditions at: EDDC (DRESDEN/KLOTZSCH, DE) observed 1220 UTC 07 February 2023
Temperature: 0.0°C (32°F)
Dewpoint: -6.0°C (21°F) [RH = 64%]
Pressure (altimeter): 30.71 inches Hg (1040.0 mb)
Winds: variable direction winds at 2 MPH (2 knots; 1.0 m/s)
Visibility: 6 or more miles (10+ km)
Ceiling: ceiling and visibility are OK
Clouds: unknown
Weather: no significant weather observed at this time

METAR text: EDDC 071150Z AUTO 05003KT 330V140 CAVOK M01/M05 Q1041 NOSIG
Conditions at: EDDC (DRESDEN/KLOTZSCH, DE) observed 1150 UTC 07 February 2023
Temperature: -1.0°C (30°F)
Dewpoint: -5.0°C (23°F) [RH = 74%]
Pressure (altimeter): 30.74 inches Hg (1041.0 mb)
Winds: from the NE (50 degrees) at 3 MPH (3 knots; 1.5 m/s)
Visibility: 6 or more miles (10+ km)
Ceiling: ceiling and visibility are OK
Clouds: unknown
Weather: no significant weather observed at this time

Forecast for: EDDC (DRESDEN/KLOTZSCH, DE)
Text: TAF EDDC 071100Z 0712/0812 VRB03KT CAVOK
Forecast period: 1200 UTC 07 February 2023 to 1200 UTC 08 February 2023
Forecast type: FROM: standard forecast or significant change
Winds: variable direction winds at 3 MPH (3 knots; 1.5 m/s)
Visibility: 6 or more miles (10+ km)
Ceiling: unknown
Clouds: missing
Weather: NSW  (no significant weather)
Text: PROB40
Forecast period: 0300 to 0800 UTC 08 February 2023
Forecast type: TEMPORARY: The following changes expected for less than half the time period
Visibility: 0.75 miles (1.21 km)
Ceiling: unknown
Clouds: missing
Weather: BCFG  (patches of fog)